createdAt,value
2022-08-09T00:01:52.708Z,7.45
2022-08-09T00:04:33.798Z,6.32
2022-08-09T00:07:03.836Z,7.40
2022-08-09T00:09:39.001Z,7.63
2022-08-09T00:12:07.678Z,8.23
2022-08-09T00:14:37.917Z,7.70
2022-08-09T00:17:07.558Z,8.52
2022-08-09T00:19:36.945Z,9.43
2022-08-09T00:22:08.603Z,11.00
2022-08-09T00:24:39.850Z,10.02
2022-08-09T00:27:08.876Z,10.00
2022-08-09T00:30:10.005Z,9.98
2022-08-09T00:32:27.203Z,7.50
2022-08-09T00:34:56.338Z,9.63
2022-08-09T00:37:24.749Z,10.15
2022-08-09T00:40:14.006Z,10.63
2022-08-09T00:44:13.328Z,9.15
2022-08-09T00:45:30.056Z,9.20
2022-08-09T00:48:04.991Z,7.28
2022-08-09T00:50:34.284Z,6.57
2022-08-09T00:53:10.214Z,6.00
2022-08-09T00:56:05.552Z,6.50
2022-08-09T00:58:30.586Z,6.32
2022-08-09T01:01:00.194Z,5.55
2022-08-09T01:03:36.422Z,9.25
2022-08-09T01:06:53.799Z,9.32
2022-08-09T01:09:54.194Z,9.30
2022-08-09T01:12:36.108Z,7.65
2022-08-09T01:15:17.542Z,7.20
2022-08-09T01:17:50.030Z,6.50
2022-08-09T01:20:48.837Z,6.47
2022-08-09T01:24:02.974Z,6.70
2022-08-09T01:26:34.796Z,6.53
2022-08-09T01:29:05.091Z,7.20
2022-08-09T01:32:32.534Z,6.78
2022-08-09T01:34:26.664Z,7.15
2022-08-09T01:36:58.468Z,7.00
2022-08-09T01:39:28.993Z,6.78
2022-08-09T01:42:00.606Z,6.38
2022-08-09T01:44:32.851Z,6.05
2022-08-09T01:47:04.941Z,6.50
2022-08-09T01:49:38.744Z,5.38
2022-08-09T01:52:14.702Z,5.68
2022-08-09T01:54:49.417Z,6.40
2022-08-09T01:57:25.734Z,6.03
2022-08-09T02:00:08.987Z,6.55
2022-08-09T02:02:51.478Z,6.17
2022-08-09T02:05:35.500Z,6.03
2022-08-09T02:08:39.840Z,6.93
2022-08-09T02:11:02.405Z,11.13
2022-08-09T02:13:40.343Z,8.35
2022-08-09T02:16:12.315Z,6.70
2022-08-09T02:18:42.938Z,6.63
2022-08-09T02:21:22.063Z,5.65
2022-08-09T02:23:57.013Z,5.35
2022-08-09T02:26:28.783Z,6.35
2022-08-09T02:29:00.752Z,6.93
2022-08-09T02:31:35.533Z,9.90
2022-08-09T02:34:25.747Z,6.38
2022-08-09T02:37:12.143Z,5.15
2022-08-09T02:39:49.959Z,5.45
2022-08-09T02:42:31.566Z,8.07
2022-08-09T02:45:06.680Z,10.43
2022-08-09T02:47:57.500Z,11.25
2022-08-09T02:50:31.672Z,11.02
2022-08-09T02:53:05.607Z,12.13
2022-08-09T02:55:57.730Z,12.45
2022-08-09T02:58:36.153Z,12.98
2022-08-09T03:01:10.581Z,11.63
2022-08-09T03:04:12.947Z,12.15
2022-08-09T03:06:31.050Z,12.40
2022-08-09T03:09:02.455Z,12.27
2022-08-09T03:12:06.031Z,13.32
2022-08-09T03:14:28.167Z,14.07
2022-08-09T03:16:58.398Z,15.95
2022-08-09T03:19:57.933Z,16.00
2022-08-09T03:22:25.657Z,15.38
2022-08-09T03:25:06.653Z,12.55
2022-08-09T03:27:55.240Z,11.55
2022-08-09T03:30:29.733Z,8.20
2022-08-09T03:33:18.851Z,9.73
2022-08-09T03:36:12.706Z,10.45
2022-08-09T03:38:41.791Z,10.77
2022-08-09T03:41:18.177Z,12.20
2022-08-09T03:44:03.473Z,12.90
2022-08-09T03:46:37.541Z,6.60
2022-08-09T03:49:09.200Z,7.45
2022-08-09T03:51:58.175Z,5.45
2022-08-09T03:54:38.628Z,5.55
2022-08-09T03:57:18.389Z,7.30
2022-08-09T03:59:54.436Z,7.47
2022-08-09T04:02:28.296Z,8.40
2022-08-09T04:05:06.487Z,7.25
2022-08-09T04:07:52.683Z,6.65
2022-08-09T04:10:29.699Z,6.35
2022-08-09T04:13:01.330Z,5.45
2022-08-09T04:15:52.502Z,6.95
2022-08-09T04:18:22.034Z,7.35
2022-08-09T04:20:51.381Z,8.07
2022-08-09T04:23:24.599Z,9.02
2022-08-09T04:25:55.907Z,10.25
2022-08-09T04:28:34.164Z,10.05
2022-08-09T04:31:09.211Z,9.20
2022-08-09T04:33:47.180Z,10.77
2022-08-09T04:36:26.218Z,7.63
2022-08-09T04:38:55.221Z,7.05
2022-08-09T04:41:33.335Z,6.63
2022-08-09T04:44:11.036Z,7.45
2022-08-09T04:46:58.909Z,11.02
2022-08-09T04:49:52.962Z,13.20
2022-08-09T04:52:22.150Z,17.45
2022-08-09T04:54:59.973Z,19.25
2022-08-09T04:57:54.163Z,16.45
2022-08-09T05:00:17.400Z,14.70
2022-08-09T05:02:51.727Z,12.00
2022-08-09T05:05:32.290Z,13.20
2022-08-09T05:08:14.745Z,11.50
2022-08-09T05:10:43.486Z,9.95
2022-08-09T05:13:13.139Z,15.02
2022-08-09T05:15:52.161Z,9.02
2022-08-09T05:18:38.601Z,11.40
2022-08-09T05:21:22.903Z,14.40
2022-08-09T05:24:00.250Z,12.32
2022-08-09T05:26:36.384Z,15.13
2022-08-09T05:29:06.068Z,13.77
2022-08-09T05:31:44.406Z,7.32
2022-08-09T05:34:16.580Z,7.03
2022-08-09T05:36:46.859Z,8.15
2022-08-09T05:39:28.610Z,8.88
2022-08-09T05:42:01.612Z,9.70
2022-08-09T05:44:34.965Z,10.95
2022-08-09T05:47:04.977Z,9.77
2022-08-09T05:50:24.007Z,8.68
2022-08-09T05:52:24.798Z,8.55
2022-08-09T05:54:53.607Z,8.40
2022-08-09T05:57:25.165Z,8.82
2022-08-09T06:00:12.972Z,10.73
2022-08-09T06:02:42.282Z,9.77
2022-08-09T06:05:14.779Z,7.40
2022-08-09T06:07:44.548Z,7.88
2022-08-09T06:10:32.867Z,9.35
2022-08-09T06:13:11.655Z,9.38
2022-08-09T06:15:41.216Z,12.05
2022-08-09T06:18:10.301Z,12.68
2022-08-09T06:20:39.554Z,10.27
2022-08-09T06:23:07.904Z,8.48
2022-08-09T06:25:40.312Z,8.38
2022-08-09T06:28:11.558Z,9.43
2022-08-09T06:30:43.314Z,8.20
2022-08-09T06:33:30.331Z,8.88
2022-08-09T06:36:00.022Z,7.95
2022-08-09T06:38:36.358Z,8.20
2022-08-09T06:41:18.191Z,9.80
2022-08-09T06:43:48.527Z,10.73
2022-08-09T06:46:39.657Z,10.52
2022-08-09T06:49:05.618Z,9.45
2022-08-09T06:51:33.935Z,10.00
2022-08-09T06:54:09.235Z,9.38
2022-08-09T06:56:45.504Z,11.15
2022-08-09T07:00:48.979Z,10.15
2022-08-09T07:02:03.530Z,11.23
2022-08-09T07:04:33.151Z,17.00
2022-08-09T07:07:04.714Z,17.65
2022-08-09T07:09:55.840Z,16.63
2022-08-09T07:12:22.134Z,23.67
2022-08-09T07:16:36.286Z,17.05
2022-08-09T07:18:02.676Z,14.63
2022-08-09T07:20:31.897Z,13.10
2022-08-09T07:23:00.148Z,13.55
2022-08-09T07:25:29.081Z,10.38
2022-08-09T07:27:59.314Z,14.90
2022-08-09T07:30:33.145Z,10.60
2022-08-09T07:33:01.669Z,9.73
2022-08-09T07:35:54.158Z,10.73
2022-08-09T07:38:23.461Z,10.77
2022-08-09T07:41:08.284Z,14.05
2022-08-09T07:43:41.046Z,11.27
2022-08-09T07:46:09.901Z,11.40
2022-08-09T07:48:40.020Z,9.40
2022-08-09T07:52:03.529Z,12.65
2022-08-09T07:54:05.127Z,14.70
2022-08-09T07:56:38.904Z,9.73
2022-08-09T08:02:05.667Z,7.85
2022-08-09T08:04:34.258Z,7.28
2022-08-09T08:07:27.087Z,8.52
2022-08-09T08:10:05.776Z,6.70
2022-08-09T08:12:45.223Z,7.18
2022-08-09T08:15:18.073Z,7.00
2022-08-09T08:17:55.581Z,7.82
2022-08-09T08:20:32.355Z,8.93
2022-08-09T08:23:16.267Z,10.45
2022-08-09T08:25:49.705Z,8.65
2022-08-09T08:28:32.203Z,8.98
2022-08-09T08:31:08.926Z,8.40
2022-08-09T08:33:53.204Z,7.70
2022-08-09T08:36:29.477Z,8.02
2022-08-09T08:39:00.026Z,9.77
2022-08-09T08:41:42.208Z,8.38
2022-08-09T11:37:07.518Z,6.25
2022-08-09T11:40:04.017Z,5.30
2022-08-09T11:42:45.148Z,5.03
2022-08-09T11:45:42.284Z,5.72
2022-08-09T11:48:25.965Z,5.38
2022-08-09T11:51:37.989Z,5.80
2022-08-09T11:54:13.670Z,5.90
2022-08-09T11:56:48.334Z,8.23
2022-08-09T11:59:30.539Z,6.82
2022-08-09T12:02:17.346Z,7.28
2022-08-09T12:04:58.028Z,6.38
2022-08-09T12:07:41.619Z,6.30
2022-08-09T12:10:31.876Z,6.43
2022-08-09T12:13:03.395Z,7.78
2022-08-09T12:15:52.301Z,42.13
2022-08-09T12:18:26.227Z,7.45
2022-08-09T12:21:02.499Z,9.02
2022-08-09T12:26:26.131Z,18.30
2022-08-09T12:29:10.127Z,8.50
2022-08-09T12:32:02.490Z,10.65
2022-08-09T12:34:37.567Z,8.10
2022-08-09T12:37:22.288Z,6.57
2022-08-09T12:40:10.580Z,7.60
2022-08-09T12:42:45.031Z,7.88
2022-08-09T12:45:34.931Z,7.90
2022-08-09T12:48:05.714Z,7.22
2022-08-09T12:50:41.227Z,8.05
2022-08-09T12:53:38.854Z,7.97
2022-08-09T12:56:39.292Z,5.75
2022-08-09T12:59:18.698Z,6.35
2022-08-09T13:02:02.010Z,6.35
2022-08-09T13:04:37.124Z,6.97
2022-08-09T13:07:15.231Z,7.53
2022-08-09T13:09:55.110Z,6.72
2022-08-09T13:12:25.034Z,6.90
2022-08-09T13:14:55.080Z,6.57
2022-08-09T13:18:03.590Z,7.63
2022-08-09T13:20:20.253Z,8.25
2022-08-09T13:23:00.928Z,6.55
2022-08-09T13:25:52.967Z,6.93
2022-08-09T13:28:34.228Z,6.53
2022-08-09T13:32:17.963Z,6.40
2022-08-09T13:34:00.738Z,6.28
2022-08-09T13:36:40.246Z,6.95
2022-08-09T13:41:50.897Z,8.05
2022-08-09T13:42:12.432Z,9.88
2022-08-09T13:44:46.040Z,7.88
2022-08-09T13:47:31.245Z,4.88
2022-08-09T13:50:18.021Z,5.72
2022-08-09T13:52:58.840Z,4.97
2022-08-09T13:55:29.075Z,5.03
2022-08-09T13:57:59.797Z,5.18
2022-08-09T14:00:30.485Z,5.22
2022-08-09T14:04:03.810Z,6.13
2022-08-09T14:06:31.782Z,18.17
2022-08-09T14:09:00.827Z,13.48
2022-08-09T14:11:31.087Z,24.65
2022-08-09T14:14:22.719Z,10.10
2022-08-09T14:16:49.763Z,8.70
2022-08-09T14:19:20.329Z,18.25
2022-08-09T14:21:49.114Z,9.43
2022-08-09T14:24:22.339Z,6.28
2022-08-09T14:27:01.629Z,7.35
2022-08-09T14:30:34.862Z,7.47
2022-08-09T14:32:19.881Z,9.63
2022-08-09T14:34:57.449Z,7.65
2022-08-09T14:37:28.365Z,7.53
2022-08-09T14:39:57.554Z,8.93
2022-08-09T14:42:30.387Z,9.25
2022-08-09T14:46:54.122Z,11.57
2022-08-09T14:48:02.164Z,10.18
2022-08-09T14:50:34.274Z,8.98
2022-08-09T14:53:11.363Z,10.75
2022-08-09T14:55:44.598Z,8.13
2022-08-09T14:58:18.691Z,11.43
2022-08-09T15:00:51.219Z,10.00
2022-08-09T15:03:21.324Z,9.98
2022-08-09T15:05:54.801Z,7.45
2022-08-09T15:08:25.167Z,8.52
2022-08-09T15:11:00.368Z,6.55
2022-08-09T15:13:48.531Z,5.07
2022-08-09T15:16:19.146Z,6.05
2022-08-09T15:18:49.314Z,4.82
2022-08-09T15:22:01.208Z,5.13
2022-08-09T15:24:16.208Z,8.43
2022-08-09T15:26:53.318Z,5.85
2022-08-09T15:30:55.570Z,16.00
2022-08-09T15:32:28.423Z,7.97
2022-08-09T15:34:59.922Z,6.40
2022-08-09T15:37:37.436Z,5.78
2022-08-09T15:40:12.927Z,5.68
2022-08-09T15:42:44.561Z,5.78
2022-08-09T15:45:14.631Z,5.40
2022-08-09T15:48:01.720Z,5.53
2022-08-09T15:50:39.313Z,4.60
2022-08-09T15:54:02.188Z,5.78
2022-08-09T15:58:48.863Z,5.82
2022-08-09T16:01:20.005Z,5.20
2022-08-09T16:03:50.944Z,6.22
2022-08-09T16:06:34.829Z,6.00
2022-08-09T16:09:06.411Z,7.25
2022-08-09T16:11:36.276Z,33.03
2022-08-09T16:14:07.686Z,7.85
2022-08-09T16:16:42.030Z,4.75
2022-08-09T16:19:14.681Z,4.72
2022-08-09T16:21:51.735Z,6.72
2022-08-09T16:24:33.261Z,5.10
2022-08-09T16:27:05.065Z,5.78
2022-08-09T16:29:38.004Z,4.87
2022-08-09T16:32:35.080Z,5.70
2022-08-09T16:35:03.843Z,4.72
2022-08-09T16:37:55.328Z,4.20
2022-08-09T16:40:40.269Z,4.90
2022-08-09T16:43:09.653Z,5.28
2022-08-09T16:45:43.612Z,4.95
2022-08-09T16:51:08.123Z,5.15
2022-08-09T16:54:08.900Z,4.28
2022-08-09T16:56:32.399Z,4.22
2022-08-09T16:59:06.782Z,4.70
2022-08-09T17:01:39.714Z,4.35
2022-08-09T17:04:25.432Z,5.88
2022-08-09T17:08:46.287Z,6.57
2022-08-09T17:09:47.421Z,4.70
2022-08-09T17:12:16.341Z,7.40
2022-08-09T17:14:46.381Z,4.15
2022-08-09T17:17:27.547Z,4.05
2022-08-09T17:20:29.961Z,3.83
2022-08-09T17:22:52.110Z,3.75
2022-08-09T17:25:22.176Z,4.57
2022-08-09T17:27:54.733Z,3.30
2022-08-09T17:30:28.576Z,3.70
2022-08-09T17:33:05.659Z,3.95
2022-08-09T17:35:50.267Z,3.92
2022-08-09T17:38:31.026Z,4.88
2022-08-09T17:41:02.200Z,5.60
2022-08-09T17:43:33.930Z,4.90
2022-08-09T17:46:07.110Z,5.88
2022-08-09T17:48:39.002Z,6.10
2022-08-09T17:51:18.125Z,5.55
2022-08-09T17:53:55.065Z,4.50
2022-08-09T17:56:35.923Z,5.53
2022-08-09T17:59:11.317Z,5.25
2022-08-09T18:02:06.572Z,6.13
2022-08-09T18:04:30.484Z,5.28
2022-08-09T18:06:59.210Z,5.45
2022-08-09T18:09:40.481Z,4.13
2022-08-09T18:14:54.875Z,5.57
2022-08-09T18:18:03.730Z,15.52
2022-08-09T18:20:56.592Z,21.35
2022-08-09T18:23:07.701Z,36.75
2022-08-09T18:25:58.122Z,9.32
2022-08-09T18:30:38.042Z,8.38
2022-08-09T18:31:24.952Z,14.48
2022-08-09T18:34:05.917Z,17.15
2022-08-09T18:36:36.245Z,9.68
2022-08-09T18:39:06.716Z,8.98
2022-08-09T18:41:35.577Z,14.00
2022-08-09T18:44:12.534Z,80.53
2022-08-09T18:46:47.066Z,39.83
2022-08-09T18:49:21.021Z,21.00
2022-08-09T18:51:57.757Z,25.75
2022-08-09T18:54:28.661Z,24.45
2022-08-09T18:57:06.126Z,33.35
2022-08-09T18:59:48.598Z,35.22
2022-08-09T19:02:19.306Z,40.28
2022-08-09T19:05:03.860Z,22.95
2022-08-09T19:07:37.000Z,10.65
2022-08-09T19:10:17.425Z,16.80
2022-08-09T19:12:51.122Z,46.95
2022-08-09T19:15:30.561Z,30.88
2022-08-09T19:17:59.174Z,17.23
2022-08-09T19:20:34.075Z,17.90
2022-08-09T19:23:06.468Z,32.53
2022-08-09T19:26:01.315Z,22.92
2022-08-09T19:28:28.659Z,23.33
2022-08-09T19:30:57.252Z,57.10
2022-08-09T19:33:25.479Z,87.35
2022-08-09T19:35:56.883Z,22.10
2022-08-09T19:38:28.177Z,11.98
2022-08-09T19:40:57.238Z,10.77
2022-08-09T19:44:00.459Z,16.83
2022-08-09T19:46:33.895Z,44.42
2022-08-09T19:50:08.755Z,41.25
2022-08-09T19:51:56.697Z,11.07
2022-08-09T19:54:26.425Z,8.25
2022-08-09T19:56:58.480Z,10.50
2022-08-09T19:59:57.839Z,25.10
2022-08-09T20:04:12.455Z,39.40
2022-08-09T20:05:10.323Z,22.80
2022-08-09T20:07:59.001Z,34.85
2022-08-09T20:10:34.537Z,30.58
2022-08-09T20:13:04.392Z,9.98
2022-08-09T20:16:32.901Z,11.35
2022-08-09T20:18:22.509Z,9.75
2022-08-09T20:20:55.484Z,10.63
2022-08-09T20:23:24.411Z,10.65
2022-08-09T20:26:09.155Z,9.80
2022-08-09T20:28:48.528Z,11.25
2022-08-09T20:31:18.908Z,13.05
2022-08-09T20:33:52.448Z,8.45
2022-08-09T20:36:27.879Z,15.70
2022-08-09T20:39:27.630Z,10.48
2022-08-09T20:41:46.626Z,16.23
2022-08-09T20:44:26.818Z,18.42
2022-08-09T20:46:55.909Z,13.77
2022-08-09T20:49:26.307Z,16.00
2022-08-09T20:51:56.932Z,12.60
2022-08-09T20:54:29.114Z,13.18
2022-08-09T20:56:58.321Z,15.57
2022-08-09T21:00:19.601Z,12.95
2022-08-09T21:02:17.510Z,12.40
2022-08-09T21:05:54.937Z,13.65
2022-08-09T21:07:38.793Z,11.30
2022-08-09T21:10:11.601Z,18.45
2022-08-09T21:12:40.543Z,13.50
2022-08-09T21:15:33.974Z,11.57
2022-08-09T21:18:24.718Z,10.88
2022-08-09T21:20:54.543Z,13.50
2022-08-09T21:23:47.142Z,11.32
2022-08-09T21:26:15.555Z,9.05
2022-08-09T21:28:55.536Z,8.38
2022-08-09T21:31:48.749Z,8.52
2022-08-09T21:34:17.090Z,8.57
2022-08-09T21:36:57.312Z,9.10
2022-08-09T21:39:28.219Z,8.95
2022-08-09T21:42:11.321Z,8.68
2022-08-09T21:44:42.899Z,9.77
2022-08-09T21:47:14.192Z,10.18
2022-08-09T21:49:47.325Z,11.30
2022-08-09T21:52:20.677Z,11.88
2022-08-09T21:55:03.246Z,11.60
2022-08-09T21:57:38.611Z,10.98
2022-08-09T22:00:33.260Z,12.48
2022-08-09T22:03:08.205Z,14.10
2022-08-09T22:05:51.216Z,14.75
2022-08-09T22:08:22.867Z,13.43
2022-08-09T22:11:50.099Z,12.43
2022-08-09T22:13:43.877Z,11.70
2022-08-09T22:16:12.763Z,12.13
2022-08-09T22:18:44.092Z,14.43
2022-08-09T22:21:24.731Z,14.10
2022-08-09T22:24:01.692Z,15.03
2022-08-09T22:26:37.822Z,16.42
2022-08-09T22:29:10.231Z,15.82
2022-08-09T22:34:25.468Z,8.18
2022-08-09T22:36:56.217Z,7.68
2022-08-09T22:39:56.329Z,8.80
2022-08-09T22:42:21.213Z,6.82
2022-08-09T22:45:00.415Z,7.13
2022-08-09T22:48:15.097Z,7.00
2022-08-09T22:50:32.288Z,7.82
2022-08-09T22:53:03.565Z,5.10
2022-08-09T22:56:06.236Z,4.82
2022-08-09T22:58:33.078Z,4.47
2022-08-09T23:01:03.471Z,5.32
2022-08-09T23:04:05.321Z,6.03
2022-08-09T23:06:35.306Z,5.50
2022-08-09T23:11:36.295Z,5.50
2022-08-09T23:14:16.963Z,5.30
2022-08-09T23:16:46.087Z,6.57
2022-08-09T23:19:14.670Z,6.15
2022-08-09T23:21:43.296Z,5.85
2022-08-09T23:24:11.874Z,6.10
2022-08-09T23:26:41.266Z,5.28
2022-08-09T23:29:14.116Z,6.22
2022-08-09T23:31:43.366Z,5.95
2022-08-09T23:34:11.838Z,4.68
2022-08-09T23:36:40.273Z,4.80
2022-08-09T23:39:08.929Z,4.50
2022-08-09T23:41:37.388Z,4.75
2022-08-09T23:44:06.215Z,4.07
2022-08-09T23:46:35.078Z,3.45
2022-08-09T23:49:04.396Z,4.63
2022-08-09T23:51:32.828Z,4.45
2022-08-09T23:54:02.485Z,4.20
2022-08-09T23:56:52.572Z,4.15
2022-08-09T23:59:24.869Z,5.50
